Time;durP1;ratioP1;P1;durP2;ratioP2;P2;SDS_P1;SDS_P2;PMS_P1;PMS_P2;Temp;Humidity;BMP_temperature;BMP_pressure;BME280_temperature;BME280_humidity;BME280_pressure;Samples;Min_cycle;Max_cycle;Signal;HPM_P1;HPM_P2
2021/12/15 00:02:19;;;;;;;6.45;4.75;;;19.50;63.10;;;;;;5006141;28;20216;-60
2021/12/15 00:04:52;;;;;;;7.55;4.50;;;19.60;63.30;;;;;;5007755;28;20201;-55
2021/12/15 00:07:23;;;;;;;8.50;5.65;;;19.60;63.60;;;;;;5007735;28;20635;-61
2021/12/15 00:09:54;;;;;;;8.52;4.97;;;19.60;64.00;;;;;;5007064;28;20205;-56
2021/12/15 00:12:25;;;;;;;6.70;5.10;;;19.60;64.10;;;;;;5005975;28;20255;-62
2021/12/15 00:14:57;;;;;;;8.60;4.88;;;19.60;64.20;;;;;;5007343;28;20585;-43
2021/12/15 00:17:28;;;;;;;7.65;4.68;;;19.60;64.30;;;;;;5008721;28;20608;-39
2021/12/15 00:19:59;;;;;;;7.85;4.85;;;19.70;64.40;;;;;;5010040;28;20228;-39
2021/12/15 00:22:29;;;;;;;7.53;4.75;;;19.70;64.50;;;;;;5009447;28;20223;-54
2021/12/15 00:25:00;;;;;;;6.68;4.60;;;19.70;64.50;;;;;;5008044;28;20192;-51
2021/12/15 00:27:31;;;;;;;6.20;4.53;;;19.70;64.50;;;;;;5002837;28;20279;-42
2021/12/15 00:30:03;;;;;;;6.18;4.43;;;19.70;64.50;;;;;;5007156;28;20206;-42
2021/12/15 00:32:34;;;;;;;7.18;4.80;;;19.70;64.40;;;;;;5010563;28;20259;-39
2021/12/15 00:35:05;;;;;;;7.07;4.90;;;19.70;64.40;;;;;;5009797;28;20201;-41
2021/12/15 00:37:36;;;;;;;6.22;4.85;;;19.70;64.50;;;;;;5010156;28;20595;-39
2021/12/15 00:40:10;;;;;;;11.25;4.80;;;19.70;64.50;;;;;;5011027;28;20233;-39
2021/12/15 00:42:41;;;;;;;6.10;4.55;;;19.70;64.30;;;;;;5010425;28;20263;-55
2021/12/15 00:45:15;;;;;;;6.03;4.25;;;19.70;64.30;;;;;;5011282;28;20197;-41
2021/12/15 00:47:46;;;;;;;6.47;4.18;;;19.70;64.30;;;;;;5008913;28;20213;-39
2021/12/15 00:50:18;;;;;;;5.05;3.97;;;19.70;64.20;;;;;;5010109;28;20213;-52
2021/12/15 00:52:50;;;;;;;6.97;4.30;;;19.70;64.30;;;;;;5008466;28;20213;-38
2021/12/15 00:55:24;;;;;;;4.68;3.60;;;19.70;64.30;;;;;;5010951;28;20205;-41
2021/12/15 00:57:55;;;;;;;6.72;3.65;;;19.70;64.30;;;;;;5009683;28;20275;-51
2021/12/15 01:00:29;;;;;;;5.63;4.05;;;19.70;64.50;;;;;;5009243;28;20782;-41
2021/12/15 01:03:00;;;;;;;5.75;3.50;;;19.70;64.60;;;;;;5008817;28;20243;-43
2021/12/15 01:05:35;;;;;;;6.28;3.83;;;19.70;64.70;;;;;;5009969;28;20200;-39
2021/12/15 01:08:08;;;;;;;6.28;3.90;;;19.70;64.70;;;;;;5008522;28;20224;-39
2021/12/15 01:10:56;;;;;;;6.32;3.97;;;19.70;64.60;;;;;;5009626;28;20197;-39
2021/12/15 01:21:54;;;;;;;4.97;3.40;;;19.70;64.40;;;;;;5009955;28;20231;-44
2021/12/15 01:24:24;;;;;;;4.15;3.00;;;19.70;64.50;;;;;;5009804;28;20197;-46
2021/12/15 01:26:55;;;;;;;3.97;3.15;;;19.70;64.60;;;;;;5008495;28;20212;-38
2021/12/15 01:29:26;;;;;;;5.28;3.50;;;19.70;64.70;;;;;;5009008;28;20265;-39
2021/12/15 01:31:58;;;;;;;3.63;2.78;;;19.70;64.60;;;;;;5009680;28;20252;-39
2021/12/15 01:34:29;;;;;;;4.35;3.10;;;19.70;64.60;;;;;;5008999;28;20256;-39
2021/12/15 01:37:00;;;;;;;4.45;3.35;;;19.70;64.70;;;;;;5009943;28;20252;-39
2021/12/15 01:39:30;;;;;;;5.63;2.95;;;19.70;64.80;;;;;;5008984;28;20270;-45
2021/12/15 01:42:01;;;;;;;3.42;3.10;;;19.70;64.80;;;;;;5008759;28;20267;-39
2021/12/15 01:47:20;;;;;;;2.70;2.50;;;19.70;64.90;;;;;;5009033;28;20664;-42
2021/12/15 01:49:53;;;;;;;3.17;2.35;;;19.80;64.90;;;;;;5009366;28;20193;-39
2021/12/15 01:52:26;;;;;;;4.22;3.10;;;19.80;64.90;;;;;;5008706;28;20197;-39
2021/12/15 01:55:00;;;;;;;5.10;3.47;;;19.80;64.90;;;;;;5009121;28;20197;-39
2021/12/15 01:57:34;;;;;;;3.63;2.60;;;19.80;64.70;;;;;;5007916;28;20208;-38
2021/12/15 02:00:09;;;;;;;3.58;2.72;;;19.80;64.70;;;;;;5008212;28;20220;-39
2021/12/15 02:02:42;;;;;;;4.10;2.97;;;19.80;64.60;;;;;;5009287;28;20192;-39
2021/12/15 02:05:13;;;;;;;2.85;2.50;;;19.80;64.60;;;;;;5008564;28;20205;-44
2021/12/15 02:07:47;;;;;;;3.65;2.80;;;19.80;64.50;;;;;;5029918;22;20232;-54
2021/12/15 02:10:19;;;;;;;3.45;2.63;;;19.80;64.50;;;;;;5027307;28;20566;-47
2021/12/15 02:12:50;;;;;;;4.22;2.90;;;19.80;64.70;;;;;;5028729;28;20192;-56
2021/12/15 02:15:23;;;;;;;3.25;2.58;;;19.80;64.80;;;;;;5028571;28;20650;-53
2021/12/15 02:17:56;;;;;;;4.07;2.92;;;19.80;64.90;;;;;;5026680;28;20643;-51
2021/12/15 02:20:35;;;;;;;2.63;2.20;;;19.80;64.70;;;;;;5027476;28;20267;-54
2021/12/15 02:23:07;;;;;;;3.47;2.80;;;19.80;64.70;;;;;;5028150;28;20262;-50
2021/12/15 02:25:37;;;;;;;3.35;2.40;;;19.80;64.70;;;;;;5026754;28;20192;-56
2021/12/15 02:28:08;;;;;;;4.10;2.67;;;19.80;64.70;;;;;;5027078;28;20290;-50
2021/12/15 02:30:50;;;;;;;5.97;2.80;;;19.80;64.70;;;;;;5026689;28;20623;-48
2021/12/15 02:39:04;;;;;;;3.35;2.60;;;19.80;64.70;;;;;;5027717;28;20257;-51
2021/12/15 02:41:36;;;;;;;2.70;2.33;;;19.80;64.70;;;;;;5027106;28;20218;-48
2021/12/15 02:44:09;;;;;;;3.42;2.33;;;19.80;64.60;;;;;;5027002;28;20655;-50
2021/12/15 02:46:43;;;;;;;2.67;2.00;;;19.80;64.60;;;;;;5026843;28;20212;-53
2021/12/15 02:49:16;;;;;;;3.08;2.42;;;19.80;64.50;;;;;;5028255;28;20215;-54
2021/12/15 02:51:50;;;;;;;2.75;2.10;;;19.80;64.50;;;;;;5025542;28;20270;-54
2021/12/15 02:54:22;;;;;;;2.83;2.50;;;19.80;64.50;;;;;;5026559;28;20201;-57
2021/12/15 02:56:53;;;;;;;2.75;2.47;;;19.90;64.50;;;;;;5026987;28;20207;-46
2021/12/15 02:59:30;;;;;;;3.17;2.22;;;19.80;64.40;;;;;;5027537;28;20243;-51
2021/12/15 03:02:09;;;;;;;2.92;2.15;;;19.80;64.50;;;;;;5028151;28;20246;-53
2021/12/15 03:04:43;;;;;;;2.65;2.10;;;19.80;64.70;;;;;;5026040;28;20204;-51
2021/12/15 03:07:26;;;;;;;3.33;2.40;;;19.80;64.70;;;;;;5026893;28;20563;-51
2021/12/15 03:15:35;;;;;;;2.88;2.05;;;19.80;64.60;;;;;;5025608;28;20204;-53
2021/12/15 03:18:12;;;;;;;3.05;2.17;;;19.80;64.60;;;;;;5025826;28;20222;-47
2021/12/15 03:20:48;;;;;;;2.45;2.00;;;19.90;64.70;;;;;;5025334;28;20240;-52
2021/12/15 03:23:26;;;;;;;2.63;2.20;;;19.90;64.70;;;;;;5027129;28;20245;-48
2021/12/15 03:25:58;;;;;;;2.90;2.13;;;19.90;64.80;;;;;;5026040;28;20196;-48
2021/12/15 03:34:25;;;;;;;2.17;1.90;;;19.90;64.80;;;;;;5026678;28;20207;-53
2021/12/15 03:37:22;;;;;;;2.90;2.20;;;19.90;64.70;;;;;;5026169;28;20223;-54
2021/12/15 03:39:56;;;;;;;2.35;1.90;;;19.90;64.70;;;;;;5026822;28;20232;-54
2021/12/15 03:42:30;;;;;;;2.75;1.85;;;19.90;64.60;;;;;;5024837;28;20262;-49
2021/12/15 03:45:01;;;;;;;2.40;1.90;;;19.90;64.70;;;;;;5025709;28;20197;-51
2021/12/15 03:47:35;;;;;;;3.22;2.25;;;19.90;64.60;;;;;;5026134;28;20200;-50
2021/12/15 03:50:08;;;;;;;2.75;2.25;;;19.90;64.70;;;;;;5027707;28;20196;-51
2021/12/15 03:52:39;;;;;;;2.80;2.20;;;19.90;64.80;;;;;;5030335;28;20192;-47
2021/12/15 03:55:13;;;;;;;4.78;2.30;;;19.90;65.00;;;;;;5029892;28;20200;-48
2021/12/15 03:57:44;;;;;;;2.85;2.10;;;19.90;64.70;;;;;;5028336;28;20223;-53
2021/12/15 04:00:17;;;;;;;2.88;2.03;;;19.90;64.70;;;;;;5030336;28;20236;-58
2021/12/15 04:02:48;;;;;;;2.50;1.88;;;19.90;65.50;;;;;;5029328;28;20200;-55
2021/12/15 04:05:21;;;;;;;2.10;1.90;;;19.90;64.70;;;;;;5028504;28;20262;-51
2021/12/15 04:07:53;;;;;;;3.58;1.90;;;19.90;64.80;;;;;;5030037;28;21651;-44
2021/12/15 04:10:28;;;;;;;3.13;2.25;;;19.90;64.80;;;;;;5030466;28;20191;-49
2021/12/15 04:12:59;;;;;;;2.33;1.88;;;19.90;64.80;;;;;;5030154;28;20195;-47
2021/12/15 04:15:40;;;;;;;3.13;2.28;;;19.90;64.70;;;;;;5029898;28;20724;-45
2021/12/15 04:18:11;;;;;;;2.65;2.38;;;19.90;64.70;;;;;;5029717;28;20220;-46
2021/12/15 04:20:43;;;;;;;2.90;2.30;;;19.90;64.70;;;;;;5030525;28;20216;-43
2021/12/15 04:23:18;;;;;;;2.65;1.90;;;19.90;64.60;;;;;;5029379;28;20204;-44
2021/12/15 04:25:52;;;;;;;2.65;2.10;;;19.90;64.60;;;;;;5028838;28;20199;-43
2021/12/15 04:28:27;;;;;;;4.93;2.03;;;19.90;64.60;;;;;;5084362;23;20224;-46
2021/12/15 04:31:00;;;;;;;2.60;2.10;;;19.90;64.60;;;;;;5051376;28;20207;-43
2021/12/15 04:33:39;;;;;;;3.08;2.20;;;19.90;64.70;;;;;;5050632;28;20241;-45
2021/12/15 04:36:12;;;;;;;2.95;1.70;;;19.90;64.80;;;;;;5050105;28;20261;-48
2021/12/15 04:38:44;;;;;;;2.78;2.35;;;19.90;64.80;;;;;;5048560;28;20676;-52
2021/12/15 04:41:18;;;;;;;4.38;2.13;;;19.90;64.60;;;;;;5049633;28;20230;-47
2021/12/15 04:43:56;;;;;;;3.42;2.10;;;19.90;64.70;;;;;;5050492;28;20187;-45
2021/12/15 04:46:28;;;;;;;2.05;1.83;;;19.90;64.70;;;;;;5048699;28;20196;-49
2021/12/15 04:48:59;;;;;;;3.17;2.08;;;19.90;64.70;;;;;;5049516;28;20297;-45
2021/12/15 04:51:30;;;;;;;2.97;1.77;;;19.90;64.60;;;;;;5049148;28;20551;-47
2021/12/15 04:54:00;;;;;;;2.33;1.83;;;19.90;64.60;;;;;;5049735;28;20196;-46
2021/12/15 04:56:35;;;;;;;2.97;2.22;;;19.90;64.70;;;;;;5048949;28;20234;-44
2021/12/15 04:59:05;;;;;;;2.40;2.08;;;19.90;64.70;;;;;;5048600;28;20219;-50
2021/12/15 05:01:36;;;;;;;3.30;2.10;;;19.90;64.60;;;;;;5047951;28;20227;-45
2021/12/15 05:04:07;;;;;;;2.78;1.70;;;19.90;64.60;;;;;;5050151;28;20195;-52
2021/12/15 05:06:39;;;;;;;2.58;1.92;;;19.90;64.50;;;;;;5049505;28;20242;-54
2021/12/15 05:09:10;;;;;;;3.20;2.10;;;19.90;64.70;;;;;;5048858;28;20633;-46
2021/12/15 05:11:42;;;;;;;2.83;2.30;;;19.90;64.50;;;;;;5048497;28;20754;-46
2021/12/15 05:14:13;;;;;;;3.08;2.10;;;19.90;64.50;;;;;;5049747;28;20195;-46
2021/12/15 05:16:43;;;;;;;2.42;1.88;;;19.90;64.40;;;;;;5048639;28;20663;-44
2021/12/15 05:19:14;;;;;;;2.72;2.10;;;19.90;64.30;;;;;;5048529;28;20223;-45
2021/12/15 05:21:45;;;;;;;3.33;2.00;;;19.90;64.10;;;;;;5045336;28;20224;-44
2021/12/15 05:24:30;;;;;;;3.00;1.95;;;19.90;63.90;;;;;;5047648;28;20195;-45
2021/12/15 05:27:05;;;;;;;2.78;1.92;;;19.90;64.10;;;;;;5049365;28;20195;-46
2021/12/15 05:29:36;;;;;;;3.15;2.25;;;19.90;64.20;;;;;;5047704;28;20286;-44
2021/12/15 05:32:08;;;;;;;2.50;1.95;;;19.90;64.10;;;;;;5047290;28;20808;-46
2021/12/15 05:34:39;;;;;;;3.35;2.13;;;19.90;64.20;;;;;;5049332;28;20192;-45
2021/12/15 05:37:10;;;;;;;3.03;1.70;;;19.90;64.30;;;;;;5048985;28;20195;-47
2021/12/15 05:39:41;;;;;;;2.60;1.90;;;19.90;64.30;;;;;;5046596;28;20223;-48
2021/12/15 05:42:14;;;;;;;2.60;2.08;;;19.90;64.20;;;;;;5047774;28;20226;-44
2021/12/15 05:44:45;;;;;;;3.38;2.25;;;19.90;64.30;;;;;;5049337;28;20195;-50
2021/12/15 05:47:15;;;;;;;2.15;1.70;;;19.90;64.30;;;;;;5048616;28;20675;-44
2021/12/15 05:49:46;;;;;;;1.98;1.80;;;19.80;64.10;;;;;;5046361;28;20192;-44
2021/12/15 05:52:17;;;;;;;2.78;1.70;;;19.90;64.00;;;;;;5047138;28;20201;-46
2021/12/15 05:54:48;;;;;;;3.05;1.95;;;19.80;63.90;;;;;;5046225;28;20203;-45
2021/12/15 05:57:20;;;;;;;2.13;1.58;;;19.80;64.00;;;;;;5048061;28;20195;-47
2021/12/15 05:59:52;;;;;;;2.53;1.80;;;19.80;63.90;;;;;;5047283;28;20245;-43
2021/12/15 06:02:22;;;;;;;1.92;1.48;;;19.80;63.90;;;;;;5047564;28;20200;-44
2021/12/15 06:04:53;;;;;;;2.78;2.03;;;19.80;63.90;;;;;;5048597;28;20285;-49
2021/12/15 06:07:24;;;;;;;2.30;1.40;;;19.80;63.90;;;;;;5048177;28;20196;-46
2021/12/15 06:09:54;;;;;;;3.13;2.00;;;19.80;63.90;;;;;;5047103;28;20246;-43
2021/12/15 06:12:28;;;;;;;2.85;1.90;;;19.80;63.90;;;;;;5047189;28;20200;-51
2021/12/15 06:14:59;;;;;;;2.38;1.70;;;19.80;63.90;;;;;;5047694;28;20199;-48
2021/12/15 06:17:29;;;;;;;4.53;2.10;;;19.80;63.80;;;;;;5046848;28;20887;-46
2021/12/15 06:20:00;;;;;;;4.60;2.10;;;19.80;64.20;;;;;;5045887;28;20195;-51
2021/12/15 06:22:33;;;;;;;4.20;2.08;;;19.80;64.50;;;;;;5045406;28;20211;-47
2021/12/15 06:25:03;;;;;;;3.28;1.90;;;19.80;65.20;;;;;;5042465;28;20196;-49
2021/12/15 06:27:37;;;;;;;3.60;2.03;;;19.80;65.10;;;;;;5047150;28;20207;-47
2021/12/15 06:30:08;;;;;;;3.20;1.80;;;19.80;64.30;;;;;;5046322;28;20196;-52
2021/12/15 06:32:39;;;;;;;2.92;1.85;;;19.80;64.30;;;;;;5044430;28;20245;-54
2021/12/15 06:35:11;;;;;;;3.63;2.17;;;19.80;64.10;;;;;;5047808;28;20196;-55
2021/12/15 06:37:42;;;;;;;3.03;1.70;;;19.80;64.00;;;;;;5047146;28;20222;-49
2021/12/15 06:40:13;;;;;;;2.42;1.73;;;19.80;64.00;;;;;;5045715;28;20345;-49
2021/12/15 06:42:46;;;;;;;1.75;1.60;;;19.80;63.90;;;;;;5046172;28;20258;-48
2021/12/15 06:45:22;;;;;;;1.70;1.60;;;19.80;63.90;;;;;;5047138;28;20285;-47
2021/12/15 06:59:03;;;;;;;2.03;1.55;;;19.80;63.90;;;;;;5046820;28;20265;-49
2021/12/15 07:01:34;;;;;;;3.20;1.70;;;19.80;63.90;;;;;;5046431;28;20231;-43
2021/12/15 07:04:04;;;;;;;2.75;1.67;;;19.80;63.90;;;;;;5046183;28;20724;-46
2021/12/15 07:06:35;;;;;;;2.08;1.40;;;19.80;63.90;;;;;;5045218;28;20262;-48
2021/12/15 07:09:06;;;;;;;2.75;1.80;;;19.80;63.90;;;;;;5046812;28;20226;-50
2021/12/15 07:11:37;;;;;;;3.08;1.58;;;19.70;63.80;;;;;;5046852;28;20663;-49
2021/12/15 07:14:10;;;;;;;2.25;1.65;;;19.80;63.80;;;;;;5043699;28;20254;-55
2021/12/15 07:16:44;;;;;;;3.30;1.90;;;19.70;63.70;;;;;;5045890;28;20204;-46
2021/12/15 07:19:20;;;;;;;3.38;1.85;;;19.80;64.00;;;;;;5045853;28;20215;-49
2021/12/15 07:22:06;;;;;;;2.80;1.92;;;19.80;64.10;;;;;;5047028;28;20226;-49
2021/12/15 07:24:38;;;;;;;3.17;1.95;;;19.80;64.30;;;;;;5045858;28;20231;-54
2021/12/15 07:27:10;;;;;;;2.47;1.85;;;19.80;64.40;;;;;;5040578;28;20272;-45
2021/12/15 07:29:42;;;;;;;2.20;1.70;;;19.80;64.10;;;;;;5045496;28;20247;-52
2021/12/15 07:32:16;;;;;;;1.85;1.58;;;19.80;64.00;;;;;;5046604;28;20200;-50
2021/12/15 07:34:47;;;;;;;3.80;1.83;;;19.70;63.90;;;;;;5045006;28;20199;-51
2021/12/15 07:37:21;;;;;;;2.45;1.80;;;19.70;63.90;;;;;;5044835;28;20245;-50
2021/12/15 07:39:58;;;;;;;2.10;1.65;;;19.70;64.00;;;;;;5046420;28;20211;-52
2021/12/15 07:42:35;;;;;;;3.10;1.98;;;19.70;64.10;;;;;;5046222;28;20297;-49
2021/12/15 07:45:08;;;;;;;1.92;1.50;;;19.70;64.10;;;;;;5046664;28;20199;-49
2021/12/15 07:47:39;;;;;;;1.75;1.40;;;19.70;64.20;;;;;;5046706;28;20219;-51
2021/12/15 07:50:10;;;;;;;3.05;1.80;;;19.70;64.10;;;;;;5045311;28;20635;-50
2021/12/15 07:52:41;;;;;;;2.38;1.52;;;19.70;64.00;;;;;;5047346;28;20199;-47
2021/12/15 07:55:13;;;;;;;3.17;1.73;;;19.70;64.00;;;;;;5045730;28;20207;-49
2021/12/15 07:57:44;;;;;;;2.17;1.60;;;19.70;64.00;;;;;;5041839;28;20716;-47
2021/12/15 08:00:18;;;;;;;3.83;1.77;;;19.70;64.00;;;;;;5046107;28;20269;-51
2021/12/15 08:02:49;;;;;;;1.63;1.40;;;19.70;64.00;;;;;;5046301;28;20241;-46
2021/12/15 08:05:20;;;;;;;2.08;1.40;;;19.70;63.90;;;;;;5045684;28;20195;-53
2021/12/15 08:07:50;;;;;;;2.28;1.60;;;19.70;64.00;;;;;;5045205;28;20276;-51
2021/12/15 08:10:21;;;;;;;2.53;1.38;;;19.70;64.00;;;;;;5044752;28;20630;-49
2021/12/15 08:12:52;;;;;;;1.45;1.35;;;19.70;64.00;;;;;;5046696;28;20207;-49
2021/12/15 08:15:25;;;;;;;3.45;1.50;;;19.60;63.90;;;;;;5045847;28;20245;-54
2021/12/15 08:17:55;;;;;;;1.98;1.30;;;19.70;64.10;;;;;;5045020;28;20246;-50
2021/12/15 08:20:28;;;;;;;2.67;1.80;;;19.60;63.90;;;;;;5045206;28;20254;-53
2021/12/15 08:22:58;;;;;;;2.08;1.60;;;19.60;63.90;;;;;;5046255;28;20204;-52
2021/12/15 08:25:29;;;;;;;2.70;1.60;;;19.70;64.10;;;;;;5045430;28;20253;-51
2021/12/15 08:28:00;;;;;;;2.05;1.40;;;19.60;64.00;;;;;;5045236;28;20277;-48
2021/12/15 08:30:35;;;;;;;1.98;1.42;;;19.60;64.10;;;;;;5040774;28;20192;-47
2021/12/15 08:33:12;;;;;;;1.73;1.40;;;19.60;64.20;;;;;;5045915;28;20248;-52
2021/12/15 08:35:46;;;;;;;2.50;1.63;;;19.60;64.10;;;;;;5045749;28;20199;-52
2021/12/15 08:38:17;;;;;;;1.77;1.35;;;19.60;64.10;;;;;;5047454;28;20218;-48
2021/12/15 08:40:51;;;;;;;2.30;1.63;;;19.60;64.00;;;;;;5048132;28;20241;-54
2021/12/15 08:43:22;;;;;;;3.28;1.95;;;19.60;64.10;;;;;;5049183;28;20191;-53
2021/12/15 08:45:58;;;;;;;3.78;1.55;;;19.60;64.00;;;;;;5048055;28;20188;-54
2021/12/15 08:48:28;;;;;;;2.72;1.45;;;19.60;64.20;;;;;;5047767;28;20222;-58
2021/12/15 08:50:59;;;;;;;2.05;1.40;;;19.60;64.30;;;;;;5049152;28;20199;-54
2021/12/15 08:53:29;;;;;;;2.28;1.60;;;19.60;64.20;;;;;;5048937;28;20200;-51
2021/12/15 08:56:00;;;;;;;2.45;1.33;;;19.60;64.20;;;;;;5049339;28;20253;-55
2021/12/15 08:58:31;;;;;;;1.63;1.30;;;19.60;64.10;;;;;;5049664;28;20691;-57
2021/12/15 09:01:03;;;;;;;2.50;1.40;;;19.60;64.10;;;;;;5048762;28;20270;-48
2021/12/15 09:03:35;;;;;;;1.50;1.27;;;19.60;64.10;;;;;;5047138;28;20199;-44
2021/12/15 09:06:07;;;;;;;2.85;1.60;;;19.60;64.10;;;;;;5045968;28;20207;-55
2021/12/15 09:08:37;;;;;;;2.03;1.60;;;19.60;64.10;;;;;;5048362;28;20215;-48
2021/12/15 09:11:12;;;;;;;2.20;1.20;;;19.60;64.60;;;;;;5047451;28;20204;-51
2021/12/15 09:13:43;;;;;;;3.30;1.40;;;19.60;64.20;;;;;;5047618;28;20203;-44
2021/12/15 09:16:17;;;;;;;2.00;1.20;;;19.50;64.10;;;;;;5047321;28;20238;-51
2021/12/15 09:18:48;;;;;;;2.00;1.30;;;19.50;64.20;;;;;;5047085;28;20219;-50
2021/12/15 09:21:22;;;;;;;2.10;1.30;;;19.50;64.20;;;;;;5048808;28;20266;-55
2021/12/15 09:23:53;;;;;;;1.55;1.13;;;19.50;64.20;;;;;;5048451;28;20982;-50
2021/12/15 09:26:24;;;;;;;2.33;1.52;;;19.50;64.20;;;;;;5047922;28;20191;-45
2021/12/15 09:28:55;;;;;;;1.48;1.10;;;19.50;64.20;;;;;;5047106;28;20227;-48
2021/12/15 09:31:28;;;;;;;1.75;1.20;;;19.50;64.10;;;;;;5047191;28;20639;-51
2021/12/15 09:33:59;;;;;;;1.73;1.10;;;19.50;64.20;;;;;;5055419;28;20192;-54
2021/12/15 09:36:31;;;;;;;2.60;1.40;;;19.50;64.20;;;;;;5065308;28;20252;-46
2021/12/15 09:39:06;;;;;;;2.40;1.55;;;19.50;64.20;;;;;;5063424;28;20276;-54
2021/12/15 09:41:37;;;;;;;2.35;1.23;;;19.50;64.10;;;;;;5062127;28;20227;-54
2021/12/15 09:44:11;;;;;;;1.55;1.20;;;19.50;64.10;;;;;;5066474;28;20195;-53
2021/12/15 10:03:45;;;;;;;2.80;1.20;;;19.50;64.20;;;;;;5050086;28;20215;-51
2021/12/15 10:06:47;;;;;;;1.98;1.20;;;19.40;64.20;;;;;;5046292;28;20201;-54
2021/12/15 10:12:30;;;;;;;1.77;1.10;;;19.40;64.20;;;;;;5047079;28;20206;-52
2021/12/15 10:18:04;;;;;;;2.40;1.25;;;19.40;64.20;;;;;;5043551;28;20661;-50
2021/12/15 10:20:37;;;;;;;2.38;1.25;;;19.40;64.20;;;;;;5038379;28;20205;-53
2021/12/15 10:23:12;;;;;;;1.77;1.27;;;19.30;64.20;;;;;;5042835;28;20223;-49
2021/12/15 10:25:49;;;;;;;2.50;1.13;;;19.40;64.30;;;;;;5046139;28;20214;-55
2021/12/15 10:28:21;;;;;;;1.92;1.00;;;19.40;64.20;;;;;;5048441;28;20571;-54
2021/12/15 10:30:54;;;;;;;1.95;1.10;;;19.40;64.30;;;;;;5031560;28;20656;-48
2021/12/15 10:33:26;;;;;;;1.77;1.13;;;19.30;64.20;;;;;;5048182;28;20245;-48
2021/12/15 10:36:02;;;;;;;1.40;0.90;;;19.40;64.20;;;;;;5047945;28;20188;-44
2021/12/15 10:38:38;;;;;;;1.40;1.00;;;19.30;64.20;;;;;;5046732;28;20222;-50
2021/12/15 10:41:11;;;;;;;1.30;0.90;;;19.30;64.10;;;;;;5039502;28;20562;-45
2021/12/15 10:43:45;;;;;;;1.23;1.00;;;19.30;64.20;;;;;;5042338;28;20253;-48
2021/12/15 10:46:17;;;;;;;1.65;1.00;;;19.30;64.20;;;;;;5042029;28;20199;-49
2021/12/15 10:48:56;;;;;;;1.70;1.05;;;19.30;64.20;;;;;;5041322;28;20223;-51
2021/12/15 10:51:44;;;;;;;0.90;0.75;;;19.30;64.30;;;;;;5037870;28;20512;-45
2021/12/15 10:54:17;;;;;;;1.65;0.80;;;19.30;64.30;;;;;;5043579;28;20659;-46
2021/12/15 10:56:55;;;;;;;1.92;1.20;;;19.30;64.30;;;;;;5042499;28;20199;-48
2021/12/15 10:59:27;;;;;;;1.90;1.10;;;19.20;64.20;;;;;;5040145;28;20215;-47
2021/12/15 11:02:01;;;;;;;1.98;1.15;;;19.30;64.40;;;;;;5042242;28;20219;-47
2021/12/15 11:04:40;;;;;;;1.48;1.00;;;19.30;64.30;;;;;;5040230;28;20717;-57
2021/12/15 11:07:23;;;;;;;1.90;0.90;;;19.20;64.20;;;;;;5056553;28;20194;-49
2021/12/15 11:10:00;;;;;;;1.58;0.80;;;19.30;64.20;;;;;;5043488;28;20192;-49
2021/12/15 11:12:33;;;;;;;1.10;0.80;;;19.30;64.30;;;;;;5047230;28;20210;-51
2021/12/15 11:15:07;;;;;;;2.17;0.90;;;19.30;64.30;;;;;;5046745;28;20196;-50
2021/12/15 11:17:39;;;;;;;1.75;1.02;;;19.30;64.30;;;;;;5048351;28;20607;-52
2021/12/15 11:20:14;;;;;;;1.35;1.05;;;19.20;64.20;;;;;;5045936;28;20231;-51
2021/12/15 11:22:49;;;;;;;1.08;0.80;;;19.30;64.30;;;;;;5045472;28;20226;-44
2021/12/15 11:25:39;;;;;;;1.55;0.95;;;19.20;64.20;;;;;;5048859;28;20208;-49
2021/12/15 11:28:15;;;;;;;1.88;0.90;;;19.20;64.20;;;;;;5049287;28;20230;-47
2021/12/15 11:30:49;;;;;;;1.23;0.75;;;19.20;64.10;;;;;;5048051;28;20245;-45
2021/12/15 11:33:22;;;;;;;1.42;0.90;;;19.20;64.10;;;;;;5046979;28;20650;-51
2021/12/15 11:35:58;;;;;;;1.45;0.90;;;19.20;64.20;;;;;;5047232;28;20262;-45
2021/12/15 11:38:32;;;;;;;1.23;0.93;;;19.20;64.20;;;;;;5032504;28;20791;-53
2021/12/15 11:41:14;;;;;;;2.08;1.15;;;19.20;64.20;;;;;;5047912;28;20257;-53
2021/12/15 11:43:49;;;;;;;1.25;0.80;;;19.20;64.20;;;;;;5045021;28;20223;-50
2021/12/15 11:46:24;;;;;;;1.00;0.60;;;19.20;64.20;;;;;;5047007;28;20257;-46
2021/12/15 11:48:57;;;;;;;1.40;0.80;;;19.20;64.20;;;;;;5048126;28;20222;-49
2021/12/15 11:51:46;;;;;;;1.67;0.77;;;19.20;64.10;;;;;;5048750;28;20256;-51
2021/12/15 11:54:23;;;;;;;0.75;0.63;;;19.20;64.20;;;;;;5048416;28;20257;-53
2021/12/15 11:56:55;;;;;;;2.30;0.70;;;19.20;64.10;;;;;;5047073;28;20741;-45
2021/12/15 11:59:28;;;;;;;1.15;0.80;;;19.20;64.10;;;;;;5046867;28;20219;-46
2021/12/15 12:02:07;;;;;;;1.27;0.65;;;19.20;64.10;;;;;;5047190;28;20264;-51
2021/12/15 12:04:42;;;;;;;1.05;0.80;;;19.10;64.10;;;;;;5047254;28;20195;-50
2021/12/15 12:07:26;;;;;;;1.48;0.85;;;19.10;64.00;;;;;;5046665;28;20199;-46
2021/12/15 12:10:02;;;;;;;1.00;0.60;;;19.10;64.10;;;;;;5045230;28;20253;-48
2021/12/15 12:12:37;;;;;;;0.90;0.60;;;19.20;64.10;;;;;;5050184;28;20609;-47
2021/12/15 12:15:12;;;;;;;1.02;0.60;;;19.10;64.10;;;;;;5053153;28;20278;-52
2021/12/15 12:17:44;;;;;;;0.60;0.60;;;19.10;64.10;;;;;;5051070;28;20298;-48
2021/12/15 12:20:17;;;;;;;0.98;0.80;;;19.10;64.00;;;;;;5050176;28;20269;-51
2021/12/15 12:22:50;;;;;;;1.10;0.73;;;19.10;64.10;;;;;;5050035;28;20223;-50
2021/12/15 12:25:24;;;;;;;0.75;0.70;;;19.10;64.10;;;;;;5051258;28;20191;-49
2021/12/15 12:27:56;;;;;;;1.00;0.90;;;19.10;64.10;;;;;;5050378;28;20360;-48
2021/12/15 12:30:30;;;;;;;1.13;0.63;;;19.10;64.10;;;;;;5049037;28;20253;-55
2021/12/15 12:33:01;;;;;;;1.50;0.80;;;19.10;64.10;;;;;;5051534;28;20198;-52
2021/12/15 12:35:35;;;;;;;1.38;0.68;;;19.10;64.10;;;;;;5048650;28;20199;-56
2021/12/15 12:38:12;;;;;;;1.13;0.70;;;19.00;64.00;;;;;;5051650;28;20752;-48
2021/12/15 12:40:52;;;;;;;1.42;0.80;;;19.10;64.10;;;;;;5040165;28;20246;-49
2021/12/15 12:43:28;;;;;;;1.20;0.70;;;19.00;63.90;;;;;;5042671;28;20281;-54
2021/12/15 12:46:09;;;;;;;1.05;0.70;;;19.00;64.70;;;;;;5052345;28;20203;-55
2021/12/15 12:48:55;;;;;;;0.75;0.75;;;19.10;64.00;;;;;;5051962;28;20289;-45
2021/12/15 13:00:11;;;;;;;0.63;0.60;;;19.00;63.90;;;;;;5047915;28;20214;-49
2021/12/15 13:02:48;;;;;;;1.52;0.98;;;19.00;63.90;;;;;;5037327;28;20675;-49
2021/12/15 13:05:37;;;;;;;0.80;0.70;;;19.00;64.70;;;;;;5049450;28;20191;-55
2021/12/15 13:08:10;;;;;;;1.05;0.80;;;19.00;64.00;;;;;;5051286;28;20222;-53
2021/12/15 13:11:03;;;;;;;1.10;0.68;;;19.00;64.00;;;;;;5049663;28;20286;-49
2021/12/15 13:13:38;;;;;;;0.60;0.52;;;19.00;64.00;;;;;;5050048;28;20279;-54
2021/12/15 13:16:10;;;;;;;0.63;0.63;;;19.00;64.00;;;;;;5052536;28;20282;-55
2021/12/15 13:18:50;;;;;;;0.98;0.68;;;19.00;64.00;;;;;;5050180;28;20239;-48
2021/12/15 13:21:23;;;;;;;1.25;0.80;;;19.00;64.00;;;;;;5049293;28;20665;-47
2021/12/15 13:23:57;;;;;;;0.80;0.70;;;18.90;63.80;;;;;;5049187;28;20227;-54
2021/12/15 13:29:49;;;;;;;1.13;0.70;;;18.90;63.80;;;;;;5034867;28;20269;-52
2021/12/15 13:32:21;;;;;;;0.75;0.73;;;18.90;63.80;;;;;;5050423;28;20279;-52
2021/12/15 13:34:52;;;;;;;1.00;0.75;;;19.00;63.90;;;;;;5045693;28;20199;-47
2021/12/15 13:37:55;;;;;;;1.50;0.82;;;18.90;63.80;;;;;;5049822;28;20282;-58
2021/12/15 13:41:18;;;;;;;1.25;0.70;;;18.90;63.80;;;;;;5047522;28;20356;-51
2021/12/15 13:43:53;;;;;;;2.10;0.80;;;18.90;63.80;;;;;;5050527;28;20229;-55
2021/12/15 13:46:39;;;;;;;1.38;1.02;;;18.90;63.90;;;;;;5050992;28;20643;-51
2021/12/15 13:49:19;;;;;;;1.30;0.80;;;18.90;64.60;;;;;;5049588;28;20706;-56
2021/12/15 13:52:20;;;;;;;1.70;1.00;;;18.90;63.90;;;;;;5048785;28;20203;-50
2021/12/15 13:54:57;;;;;;;1.48;1.00;;;18.90;63.90;;;;;;5034522;28;20257;-52
2021/12/15 13:57:30;;;;;;;1.10;0.77;;;18.90;63.90;;;;;;5047576;28;20745;-49
2021/12/15 14:00:07;;;;;;;1.15;0.80;;;18.90;63.90;;;;;;5049748;28;20282;-53
2021/12/15 14:02:41;;;;;;;0.93;0.82;;;18.90;63.90;;;;;;5050865;28;20298;-52
2021/12/15 14:05:24;;;;;;;1.02;0.70;;;18.90;63.90;;;;;;5048288;28;20636;-53
2021/12/15 14:08:00;;;;;;;1.00;0.80;;;18.90;63.90;;;;;;5051473;28;20281;-50
2021/12/15 14:10:57;;;;;;;0.95;0.70;;;18.80;63.80;;;;;;5048991;28;20199;-45
2021/12/15 14:13:51;;;;;;;1.13;0.80;;;18.80;63.80;;;;;;5035331;28;20227;-45
2021/12/15 14:16:52;;;;;;;0.80;0.80;;;18.90;63.70;;;;;;5049515;28;20275;-47
2021/12/15 14:19:30;;;;;;;1.42;0.75;;;18.90;63.70;;;;;;5044349;28;20306;-54
2021/12/15 14:22:03;;;;;;;1.17;0.90;;;18.90;63.70;;;;;;5047582;28;20286;-55
2021/12/15 14:24:34;;;;;;;1.02;0.70;;;18.90;63.70;;;;;;5044949;28;20817;-47
2021/12/15 14:27:05;;;;;;;0.85;0.70;;;18.80;63.80;;;;;;5035658;28;20245;-51
2021/12/15 14:29:37;;;;;;;0.70;0.55;;;18.80;63.80;;;;;;5049200;28;20332;-53
2021/12/15 14:32:09;;;;;;;0.73;0.60;;;18.80;63.80;;;;;;5047892;28;20640;-50
2021/12/15 14:34:43;;;;;;;1.13;0.70;;;18.80;63.90;;;;;;5044996;28;20192;-50
2021/12/15 14:37:16;;;;;;;0.93;0.70;;;18.80;63.90;;;;;;5052874;28;20666;-55
2021/12/15 14:39:48;;;;;;;1.17;0.80;;;18.80;63.80;;;;;;5049183;28;20221;-48